Terminal Aerodrome Forecast
Issued by NWS

Home | Current Version | Previous Version | Text Only | Print | Product List | Glossary On
Versions: 1 2 3 4 5 6 7 8 9 10 11 12 13 14 15 16 17 18
000
FTAK31 PAJN 302300 CCA
TAFASI
TAF COR
PASI 302359Z 0100/0124 24010KT P6SM -SHRA VCTS SCT035CB BKN045
      OVC060
      TEMPO 0100/0102 32020G30KT
     FM010300 25010KT P6SM VCSH BKN050 OVC070
     FM010700 VRB05KT P6SM SCT050 SCT090=

USA.gov is the U.S. government's official web portal to all federal, state and local government web resources and services.